Flight Track Log - Related Links

Times and Time Zones

All times are in EDT time to prevent confusion due to time zone crossing. See the CTL61 flight status page for this flight to view local times or setup timezone preferences in your user account.

Time Position Orientation Groundspeed Altitude Reporting Facility
EDT Latitude Longitude Course Direction KTS MPH feet Rate Location/Type
Fri 10:29:17 PM 37.3472 -81.2014 342° North 108 124 4,800  Level Indianapolis Center
Fri 10:30:18 PM 37.3831 -81.2164 342° North 123 142 5,800 541 Climbing Indianapolis Center
Fri 10:31:19 PM 37.4236 -81.2289 346° North 148 170 5,900 148 Climbing Indianapolis Center
Fri 10:32:20 PM 37.4689 -81.2431 346° North 168 193 6,100 98 Climbing Indianapolis Center
Fri 10:33:21 PM 37.5150 -81.2625 342° North 175 201 6,100 -49 Level Indianapolis Center
Fri 10:34:22 PM 37.5597 -81.2836 339° North 177 204 6,000 -49 Descending Indianapolis Center
Fri 10:35:23 PM 37.6128 -81.3097 339° North 174 200 6,000  Level Indianapolis Center
Fri 10:36:24 PM 37.6586 -81.3253 345° North 175 201 6,000  Level Indianapolis Center
Fri 10:37:25 PM 37.7036 -81.3419 344° North 174 200 6,000 49 Level Indianapolis Center
Fri 10:38:26 PM 37.7489 -81.3581 344° North 173 199 6,100  Climbing Indianapolis Center
Fri 10:39:27 PM 37.8014 -81.3803 342° North 171 197 6,000 -49 Descending Indianapolis Center
Fri 10:40:28 PM 37.8481 -81.4000 342° North 174 200 6,000  Level Indianapolis Center
Fri 10:41:29 PM 37.8931 -81.4200 341° North 171 197 6,000  Level Indianapolis Center
Fri 10:42:30 PM 37.9381 -81.4361 344° North 169 194 6,000 -49 Level Indianapolis Center
Fri 10:43:31 PM 37.9842 -81.4533 344° North 171 197 5,900 -246 Descending Indianapolis Center
Fri 10:44:32 PM 38.0328 -81.4711 344° North 178 205 5,500 -443 Descending Indianapolis Center
Fri 10:45:33 PM 38.0817 -81.4883 345° North 183 211 5,000 -492 Descending Indianapolis Center
Fri 10:46:34 PM 38.1311 -81.5061 344° North 184 212 4,500 -541 Descending Indianapolis Center
Fri 10:47:35 PM 38.1797 -81.5244 343° North 183 211 3,900 -541 Descending Indianapolis Center
Fri 10:48:36 PM 38.2278 -81.5481 339° North 183 211 3,400 -590 Descending Indianapolis Center
Fri 10:49:37 PM 38.2728 -81.5769 333° Northwest 181 208 2,700 -590 Descending Indianapolis Center
Fri 10:50:38 PM 38.3142 -81.6011 335° Northwest 174 200 2,200 -590 Descending Indianapolis Center
Fri 10:51:39 PM 38.3522 -81.6178 341° North 160 184 1,500 -344 Descending Indianapolis Center
Fri 10:52:40 PM 38.3878 -81.6317 343° North 156 180 1,500  Level Indianapolis Center

Login

Don't have an account? Register now (free) for customized features, flight alerts, and more!